Details From SPTN - Coronel Carlos Ciriani Santa Rosa Intl
To SCIP - Mataveri Intl
Flight Number -
Tags Generated
Created
Modified
Stats Distance 2,229 nm / 4,128 km
Max Altitude 0 ft / 0 m
Waypoints 3
Social Downloads 1
Likes 0
Share VATSIM

Download

Looking for another format? Having issues loading an existing format? Contact us
Advertisement - Login to hide

Notes

Generated

Route

SPTN IPA SCIP

ID Type Via Altitude Latitude Longitude Leg Dist Tot Dist Heading (true) Name
O SPTN APT - 0 ft / 0 m -18.06393˚ -70.27976˚ - 0 nm - -
IPA NDB - 0 ft / 0 m -27.15400˚ -109.42117˚ 2227 nm 2227 nm 249° / 264° ISLA DE PASCUA NDB
O SCIP APT - 0 ft / 0 m -27.15796˚ -109.43667˚ 0 nm 2228 nm 254° / 254° -

Altitude Profile

Advertisement - Login to hide

Weather


0- 5 10 15 20 25 30 35+ Temperature / ° C

Clouds and Precipitation
Forecast for 2017-12-13 12:00 UTC. Updated 2 hours ago

Ground ~20,000 ft ~40,000 ft Winds

SPTN

Details ICAO SPTN (TCQ)
Name CORONEL CARLOS CIRIANI SANTA ROSA INTL
Region Peru
Timezone America/Lima (UTC-5.0)
Stats Elevation 1,538 ft / 469 m (AMSL)
Location -18.053286° -70.275821°
Runways 1
Magnetic Variation 5.640° W

METAR

SPTN 131100Z 00000KT CAVOK 15/12 Q1017 RMK PP000

Decode

TAF

SPTN 130500Z 1306/1406 32004KT 9999 BKN020 TX25/1319Z TN13/1311Z FM131300 25006KT CAVOK FM131800 23011KT CAVOK

Decode

Departure Runways

ID Width Length Bearing (true) Bearing (mag) Surface Threshold Offset Overrun Length
02 148 ft / 45 m 8,234 ft / 2,510 m 19.37° 25.01° Asphalt 0 ft / 0 m 195 ft / 59 m
20 148 ft / 45 m 8,234 ft / 2,510 m 199.36° 205.00° Asphalt 0 ft / 0 m 195 ft / 59 m

SCIP

Details ICAO SCIP (IPC)
Name Mataveri Intl
Region Chile
Timezone Pacific/Easter (UTC-5.0)
Stats Elevation 227 ft / 69 m (AMSL)
Location -27.164790° -109.421829°
Runways 1
Magnetic Variation 15.103° E

METAR

SCIP 131100Z 33010KT 9999 SCT020 21/17 Q1018 NOSIG

Decode

TAF

TAF SCIP 130436Z 1306/1406 33004KT 9999 SCT025 BKN250 TN20/1311Z TX25 /1320Z TEMPO 1312/1322 30013G23KT 7000 -SHRA BKN016 BECMG 1316/1318 36016KT SCT020 SCT250 BECMG 1402/1404 33010KT SCT025 BKN250

Decode

Destination Runways

ID Width Length Bearing (true) Bearing (mag) Surface Threshold Offset Overrun Length
10 145 ft / 44 m 10,848 ft / 3,306 m 117.35° 102.25° Asphalt 0 ft / 0 m 355 ft / 108 m
28 145 ft / 44 m 10,848 ft / 3,306 m 297.33° 282.23° Asphalt 0 ft / 0 m 95 ft / 29 m

Approach Navaids

Runway Type Ident Frequency Range Bearing (true) Bearing (mag) Slope Elevation
10 Localiser IIPA 110.30 MHz 18 nm / 33 km 119.21° 104.11° - 127 ft / 39 m (AMSL)
10 Glidescope IIPA 110.30 MHz 10 nm / 19 km 117.34° 102.24° 2.50° 148 ft / 45 m (AMSL)

Popular Alternatives